YSTW

Tamworth Airport

Airport
ICAO code
YSTW
IATA Code
TMW
Summary
ICAO Region
APAC
ICAO Territory
Location

Tamworth, New South Wales

Serving
Tamworth
Elevation
1334 ft
Coordinates
31° 4' 41" S , 150° 50' 45" E
KCC
Airport WX
Cumulonimbus
Metar
YSTW 040800Z AUTO 14021KT 9999 // NCD 24/14 Q1017 RF00.0/000.0

A regional airport serving Tamworth, a city in the Australian state of New South Wales. It is located 5 nm west of the city.

 

Airport map

Aerial View

SKYbrary Partners:

Safety knowledge contributed by: